Bharti Airtel Speed Test Log

Averages  Max Speed    
1 to 25 of 45099** for Host Bharti Airtel
Time
  
  Speed    Size    User ConnectID   TestID  
3/28/20 10:09:48 am 7.52 Mbps 940 kB/s 14.4 MB2047085465725 YleA3Wga5 
3/28/20 10:04:21 am 3.2 Mbps 401 kB/s 6.8 MB65260824951152 IN Vjg5jj33_ 
3/28/20 10:04:13 am 4.41 Mbps 552 kB/s 3 MB2047074830320 IN QwrOPhSOX 
3/28/20 10:04:07 am 5.22 Mbps 653 kB/s 9 MB2047074830320 IN 6OmvhRaQq 
3/28/20 9:57:59 am 454 kbps 57 kB/s 1 MB2046722765459 Fp0q1KA6R 
3/28/20 9:56:45 am 313 kbps 39 kB/s 1 MB2046722765459 zmXEBa4aU 
3/28/20 9:55:25 am 344 kbps 43 kB/s 1 MB204672277414 gEQHV-vql 
3/28/20 9:54:23 am 681 kbps 85 kB/s 3 MB2047074830320 IN 3zSHwU8uZ 
3/28/20 9:53:50 am 649 kbps 81 kB/s 1 MB204672277414 8S9wwmvl- 
3/28/20 9:53:45 am 2.9 Mbps 363 kB/s 8.8 MB2047074830320 IN Aqf5QoFHD 
3/28/20 9:47:19 am 2.52 Mbps 315 kB/s 4.9 MB2047147731010 EX96n~Lat 
3/28/20 9:46:21 am 3.31 Mbps 413 kB/s 2.1 MB2047147731010 onb9tW2ka 
3/28/20 9:44:29 am 341 kbps 43 kB/s 3 MB2047074830320 IN 0xcJQNemW 
3/28/20 9:43:13 am 1.22 Mbps 153 kB/s 3 MB2047074830320 IN uPA9DwLWP 
3/28/20 9:42:05 am 676 kbps 85 kB/s 1.7 MB973936124194 sGkg6DJrV 
3/28/20 9:41:32 am 719 kbps 90 kB/s 1.7 MB973936124194 e7h2aB8KT 
3/28/20 9:40:51 am 1.22 Mbps 152 kB/s 2.1 MB973936124194 EJxbyET7R 
3/28/20 9:40:27 am 988 kbps 124 kB/s 2.1 MB973936124194 mhJDKsivp 
3/28/20 9:39:47 am 1.26 Mbps 158 kB/s 2 MB973936124194 bdz0bVY2g 
3/28/20 9:38:39 am 2.67 Mbps 334 kB/s 2 MB973936124194 R8BWBMAg~ 
3/28/20 9:38:19 am 3.39 Mbps 424 kB/s 2 MB973936124194 X0UphEpVM 
3/28/20 9:38:02 am 2.2 Mbps 275 kB/s 2 MB973936124194 N-w9b6miV 
3/28/20 9:37:09 am 1.14 Mbps 142 kB/s 2.3 MB9739741639336 IN TCYSFLSSd 
3/28/20 9:33:40 am 808 kbps 101 kB/s 2.4 MB2046730996836 AANFpmV85 
3/28/20 9:33:00 am 2.52 Mbps 315 kB/s 3 MB2047074830320 IN xEBT1AR8I 
  
** Partial Results: The most recent results have been displayed. Results over 50 Mbps are highlighted.
Graphed results calculation
Displaying Internet Speed Test results for Host Bharti Airtel

Minimum

Min 0.31 Mbps : 0.34 Mbps

Average [show Median]

Average 2.03 Mbps : 1.99 Mbps

Maximum

Max 7.52 Mbps : 4.41 Mbps

Minimum

Minimum: 0.31 Mbps : 0.34 Mbps

Average

Average: 2.03 Mbps : 1.99 Mbps [show Median]

Maximum

Maximum: 7.52 Mbps : 4.41 Mbps